sensor_id;sensor_type;location;lat;lon;timestamp;temperature;humidity
65378;SHT31;51982;51.042;13.806;2023-02-15T00:01:08;4.72;87.03
65378;SHT31;51982;51.042;13.806;2023-02-15T00:03:34;4.68;87.30
65378;SHT31;51982;51.042;13.806;2023-02-15T00:05:59;4.69;87.28
65378;SHT31;51982;51.042;13.806;2023-02-15T00:08:24;4.71;87.22
65378;SHT31;51982;51.042;13.806;2023-02-15T00:10:49;4.68;87.31
65378;SHT31;51982;51.042;13.806;2023-02-15T00:13:15;4.65;87.25
65378;SHT31;51982;51.042;13.806;2023-02-15T00:15:40;4.65;87.29
65378;SHT31;51982;51.042;13.806;2023-02-15T00:18:05;4.67;87.26
65378;SHT31;51982;51.042;13.806;2023-02-15T00:20:30;4.67;87.25
65378;SHT31;51982;51.042;13.806;2023-02-15T00:22:56;4.64;87.25
65378;SHT31;51982;51.042;13.806;2023-02-15T00:25:21;4.62;87.29
65378;SHT31;51982;51.042;13.806;2023-02-15T00:27:46;4.61;87.29
65378;SHT31;51982;51.042;13.806;2023-02-15T00:30:12;4.62;87.19
65378;SHT31;51982;51.042;13.806;2023-02-15T00:32:37;4.60;87.16
65378;SHT31;51982;51.042;13.806;2023-02-15T00:35:02;4.55;87.36
65378;SHT31;51982;51.042;13.806;2023-02-15T00:37:28;4.53;87.62
65378;SHT31;51982;51.042;13.806;2023-02-15T00:39:53;4.57;87.47
65378;SHT31;51982;51.042;13.806;2023-02-15T00:42:18;4.57;87.50
65378;SHT31;51982;51.042;13.806;2023-02-15T00:44:43;4.53;87.45
65378;SHT31;51982;51.042;13.806;2023-02-15T00:47:08;4.51;87.51
65378;SHT31;51982;51.042;13.806;2023-02-15T00:49:34;4.51;87.52
65378;SHT31;51982;51.042;13.806;2023-02-15T00:51:59;4.51;87.50
65378;SHT31;51982;51.042;13.806;2023-02-15T00:54:24;4.51;87.42
65378;SHT31;51982;51.042;13.806;2023-02-15T00:56:49;4.50;87.52
65378;SHT31;51982;51.042;13.806;2023-02-15T00:59:14;4.45;87.53
65378;SHT31;51982;51.042;13.806;2023-02-15T01:01:40;4.51;87.50
65378;SHT31;51982;51.042;13.806;2023-02-15T01:04:05;4.47;87.43
65378;SHT31;51982;51.042;13.806;2023-02-15T01:06:30;4.45;87.48
65378;SHT31;51982;51.042;13.806;2023-02-15T01:08:55;4.41;87.52
65378;SHT31;51982;51.042;13.806;2023-02-15T01:11:22;4.40;87.53
65378;SHT31;51982;51.042;13.806;2023-02-15T01:13:53;4.38;87.59
65378;SHT31;51982;51.042;13.806;2023-02-15T01:16:20;4.36;87.72
65378;SHT31;51982;51.042;13.806;2023-02-15T01:18:45;4.36;87.82
65378;SHT31;51982;51.042;13.806;2023-02-15T01:21:13;4.36;87.81
65378;SHT31;51982;51.042;13.806;2023-02-15T01:23:40;4.36;87.85
65378;SHT31;51982;51.042;13.806;2023-02-15T01:26:08;4.33;87.87
65378;SHT31;51982;51.042;13.806;2023-02-15T01:28:34;4.36;87.80
65378;SHT31;51982;51.042;13.806;2023-02-15T01:31:08;4.33;87.77
65378;SHT31;51982;51.042;13.806;2023-02-15T01:33:34;4.34;88.00
65378;SHT31;51982;51.042;13.806;2023-02-15T01:35:59;4.34;87.98
65378;SHT31;51982;51.042;13.806;2023-02-15T01:38:24;4.32;87.84
65378;SHT31;51982;51.042;13.806;2023-02-15T01:40:51;4.30;87.93
65378;SHT31;51982;51.042;13.806;2023-02-15T01:43:17;4.29;87.90
65378;SHT31;51982;51.042;13.806;2023-02-15T01:45:43;4.27;87.94
65378;SHT31;51982;51.042;13.806;2023-02-15T01:48:17;4.26;87.92
65378;SHT31;51982;51.042;13.806;2023-02-15T01:50:54;4.27;87.91
65378;SHT31;51982;51.042;13.806;2023-02-15T01:53:37;4.23;87.79
65378;SHT31;51982;51.042;13.806;2023-02-15T01:56:18;4.21;87.78
65378;SHT31;51982;51.042;13.806;2023-02-15T01:58:45;4.21;87.97
65378;SHT31;51982;51.042;13.806;2023-02-15T02:01:11;4.23;88.05
65378;SHT31;51982;51.042;13.806;2023-02-15T02:06:01;4.18;88.13
65378;SHT31;51982;51.042;13.806;2023-02-15T02:08:27;4.17;88.09
65378;SHT31;51982;51.042;13.806;2023-02-15T02:10:53;4.14;88.16
65378;SHT31;51982;51.042;13.806;2023-02-15T02:13:18;4.17;88.23
65378;SHT31;51982;51.042;13.806;2023-02-15T02:15:49;4.17;88.06
65378;SHT31;51982;51.042;13.806;2023-02-15T02:29:56;4.06;88.22
65378;SHT31;51982;51.042;13.806;2023-02-15T02:32:52;4.03;88.33
65378;SHT31;51982;51.042;13.806;2023-02-15T02:35:29;4.02;88.53
65378;SHT31;51982;51.042;13.806;2023-02-15T02:38:17;4.02;88.45
65378;SHT31;51982;51.042;13.806;2023-02-15T02:41:07;4.02;88.33
65378;SHT31;51982;51.042;13.806;2023-02-15T02:43:48;4.02;88.35
65378;SHT31;51982;51.042;13.806;2023-02-15T02:49:06;4.02;88.61
65378;SHT31;51982;51.042;13.806;2023-02-15T02:51:31;3.99;88.68
65378;SHT31;51982;51.042;13.806;2023-02-15T02:53:59;3.99;88.65
65378;SHT31;51982;51.042;13.806;2023-02-15T02:56:47;3.99;88.47
65378;SHT31;51982;51.042;13.806;2023-02-15T02:59:16;3.97;88.60
65378;SHT31;51982;51.042;13.806;2023-02-15T03:01:48;3.99;88.63
65378;SHT31;51982;51.042;13.806;2023-02-15T03:04:17;3.97;88.58
65378;SHT31;51982;51.042;13.806;2023-02-15T03:06:54;3.96;88.63
65378;SHT31;51982;51.042;13.806;2023-02-15T03:09:25;3.96;88.55
65378;SHT31;51982;51.042;13.806;2023-02-15T03:12:00;3.93;88.67
65378;SHT31;51982;51.042;13.806;2023-02-15T03:14:26;3.93;88.74
65378;SHT31;51982;51.042;13.806;2023-02-15T03:16:52;3.93;88.63
65378;SHT31;51982;51.042;13.806;2023-02-15T03:19:23;3.93;88.54
65378;SHT31;51982;51.042;13.806;2023-02-15T03:21:51;3.96;88.44
65378;SHT31;51982;51.042;13.806;2023-02-15T03:24:45;3.94;88.60
65378;SHT31;51982;51.042;13.806;2023-02-15T03:27:15;3.94;88.46
65378;SHT31;51982;51.042;13.806;2023-02-15T03:29:44;3.92;88.33
65378;SHT31;51982;51.042;13.806;2023-02-15T03:32:11;3.93;88.31
65378;SHT31;51982;51.042;13.806;2023-02-15T03:34:38;3.92;88.30
65378;SHT31;51982;51.042;13.806;2023-02-15T03:37:13;3.89;88.18
65378;SHT31;51982;51.042;13.806;2023-02-15T03:40:11;3.87;88.13
65378;SHT31;51982;51.042;13.806;2023-02-15T03:43:30;3.85;88.16
65378;SHT31;51982;51.042;13.806;2023-02-15T03:45:56;3.85;88.09
65378;SHT31;51982;51.042;13.806;2023-02-15T03:48:36;3.85;87.88
65378;SHT31;51982;51.042;13.806;2023-02-15T03:51:06;3.86;87.88
65378;SHT31;51982;51.042;13.806;2023-02-15T03:53:52;3.85;87.78
65378;SHT31;51982;51.042;13.806;2023-02-15T03:56:18;3.81;87.78
65378;SHT31;51982;51.042;13.806;2023-02-15T03:58:44;3.82;87.72
65378;SHT31;51982;51.042;13.806;2023-02-15T04:01:40;3.81;87.50
65378;SHT31;51982;51.042;13.806;2023-02-15T04:04:35;3.72;87.36
65378;SHT31;51982;51.042;13.806;2023-02-15T04:07:02;3.73;87.37
65378;SHT31;51982;51.042;13.806;2023-02-15T04:09:28;3.73;87.37
65378;SHT31;51982;51.042;13.806;2023-02-15T04:12:12;3.69;87.39
65378;SHT31;51982;51.042;13.806;2023-02-15T04:14:37;3.68;87.32
65378;SHT31;51982;51.042;13.806;2023-02-15T04:17:21;3.63;87.27
65378;SHT31;51982;51.042;13.806;2023-02-15T04:19:46;3.62;87.28
65378;SHT31;51982;51.042;13.806;2023-02-15T04:22:30;3.56;87.17
65378;SHT31;51982;51.042;13.806;2023-02-15T04:25:14;3.55;87.09
65378;SHT31;51982;51.042;13.806;2023-02-15T04:27:58;3.52;86.97
65378;SHT31;51982;51.042;13.806;2023-02-15T04:30:24;3.52;86.98
65378;SHT31;51982;51.042;13.806;2023-02-15T04:32:50;3.49;87.02
65378;SHT31;51982;51.042;13.806;2023-02-15T04:35:16;3.43;86.92
65378;SHT31;51982;51.042;13.806;2023-02-15T04:37:42;3.43;86.92
65378;SHT31;51982;51.042;13.806;2023-02-15T04:40:09;3.39;86.89
65378;SHT31;51982;51.042;13.806;2023-02-15T04:42:35;3.36;86.89
65378;SHT31;51982;51.042;13.806;2023-02-15T04:45:01;3.35;86.96
65378;SHT31;51982;51.042;13.806;2023-02-15T04:47:26;3.36;87.08
65378;SHT31;51982;51.042;13.806;2023-02-15T04:49:51;3.39;87.12
65378;SHT31;51982;51.042;13.806;2023-02-15T04:52:17;3.41;86.93
65378;SHT31;51982;51.042;13.806;2023-02-15T04:54:43;3.35;86.70
65378;SHT31;51982;51.042;13.806;2023-02-15T04:57:08;3.32;86.62
65378;SHT31;51982;51.042;13.806;2023-02-15T04:59:33;3.28;87.03
65378;SHT31;51982;51.042;13.806;2023-02-15T05:01:59;3.27;86.81
65378;SHT31;51982;51.042;13.806;2023-02-15T05:04:24;3.24;87.01
65378;SHT31;51982;51.042;13.806;2023-02-15T05:06:49;3.24;87.13
65378;SHT31;51982;51.042;13.806;2023-02-15T05:09:15;3.22;87.24
65378;SHT31;51982;51.042;13.806;2023-02-15T05:11:41;3.25;87.31
65378;SHT31;51982;51.042;13.806;2023-02-15T05:14:06;3.25;87.39
65378;SHT31;51982;51.042;13.806;2023-02-15T05:16:31;3.27;87.53
65378;SHT31;51982;51.042;13.806;2023-02-15T05:18:57;3.25;87.70
65378;SHT31;51982;51.042;13.806;2023-02-15T05:21:22;3.27;87.87
65378;SHT31;51982;51.042;13.806;2023-02-15T05:23:47;3.24;87.99
65378;SHT31;51982;51.042;13.806;2023-02-15T05:26:18;3.24;88.20
65378;SHT31;51982;51.042;13.806;2023-02-15T05:29:03;3.25;88.52
65378;SHT31;51982;51.042;13.806;2023-02-15T05:31:30;3.21;88.52
65378;SHT31;51982;51.042;13.806;2023-02-15T05:33:55;3.21;88.78
65378;SHT31;51982;51.042;13.806;2023-02-15T05:36:20;3.21;88.96
65378;SHT31;51982;51.042;13.806;2023-02-15T05:38:46;3.22;88.98
65378;SHT31;51982;51.042;13.806;2023-02-15T05:41:11;3.27;88.86
65378;SHT31;51982;51.042;13.806;2023-02-15T05:43:37;3.24;88.94
65378;SHT31;51982;51.042;13.806;2023-02-15T05:46:03;3.24;88.86
65378;SHT31;51982;51.042;13.806;2023-02-15T05:48:29;3.25;88.91
65378;SHT31;51982;51.042;13.806;2023-02-15T05:50:59;3.25;88.74
65378;SHT31;51982;51.042;13.806;2023-02-15T05:53:25;3.24;88.80
65378;SHT31;51982;51.042;13.806;2023-02-15T05:55:51;3.27;88.69
65378;SHT31;51982;51.042;13.806;2023-02-15T05:58:16;3.30;88.67
65378;SHT31;51982;51.042;13.806;2023-02-15T06:00:42;3.27;88.71
65378;SHT31;51982;51.042;13.806;2023-02-15T06:03:07;3.28;88.73
65378;SHT31;51982;51.042;13.806;2023-02-15T06:05:32;3.25;88.73
65378;SHT31;51982;51.042;13.806;2023-02-15T06:07:57;3.28;88.74
65378;SHT31;51982;51.042;13.806;2023-02-15T06:10:23;3.30;88.66
65378;SHT31;51982;51.042;13.806;2023-02-15T06:12:48;3.28;88.66
65378;SHT31;51982;51.042;13.806;2023-02-15T06:15:13;3.25;88.72
65378;SHT31;51982;51.042;13.806;2023-02-15T06:17:41;3.27;88.71
65378;SHT31;51982;51.042;13.806;2023-02-15T06:20:07;3.28;88.70
65378;SHT31;51982;51.042;13.806;2023-02-15T06:22:33;3.28;88.67
65378;SHT31;51982;51.042;13.806;2023-02-15T06:24:58;3.30;88.67
65378;SHT31;51982;51.042;13.806;2023-02-15T06:27:23;3.31;88.59
65378;SHT31;51982;51.042;13.806;2023-02-15T06:29:48;3.31;88.52
65378;SHT31;51982;51.042;13.806;2023-02-15T06:32:14;3.32;88.42
65378;SHT31;51982;51.042;13.806;2023-02-15T06:34:39;3.41;89.68
65378;SHT31;51982;51.042;13.806;2023-02-15T06:37:04;3.42;88.83
65378;SHT31;51982;51.042;13.806;2023-02-15T06:39:29;3.45;88.68
65378;SHT31;51982;51.042;13.806;2023-02-15T06:41:55;3.48;88.47
65378;SHT31;51982;51.042;13.806;2023-02-15T06:44:20;3.46;88.25
65378;SHT31;51982;51.042;13.806;2023-02-15T06:46:45;3.48;88.11
65378;SHT31;51982;51.042;13.806;2023-02-15T06:49:10;3.48;88.05
65378;SHT31;51982;51.042;13.806;2023-02-15T06:51:36;3.52;87.99
65378;SHT31;51982;51.042;13.806;2023-02-15T06:54:01;3.54;87.93
65378;SHT31;51982;51.042;13.806;2023-02-15T06:56:26;3.54;87.83
65378;SHT31;51982;51.042;13.806;2023-02-15T06:58:51;3.56;87.72
65378;SHT31;51982;51.042;13.806;2023-02-15T07:01:20;3.59;87.61
65378;SHT31;51982;51.042;13.806;2023-02-15T07:03:46;3.62;87.52
65378;SHT31;51982;51.042;13.806;2023-02-15T07:06:14;3.62;87.40
65378;SHT31;51982;51.042;13.806;2023-02-15T07:08:39;3.63;87.34
65378;SHT31;51982;51.042;13.806;2023-02-15T07:11:06;3.68;87.32
65378;SHT31;51982;51.042;13.806;2023-02-15T07:13:50;3.73;87.27
65378;SHT31;51982;51.042;13.806;2023-02-15T07:16:17;3.72;87.08
65378;SHT31;51982;51.042;13.806;2023-02-15T07:18:42;3.75;87.08
65378;SHT31;51982;51.042;13.806;2023-02-15T07:21:07;3.78;87.11
65378;SHT31;51982;51.042;13.806;2023-02-15T07:23:37;3.82;87.06
65378;SHT31;51982;51.042;13.806;2023-02-15T07:26:03;3.83;86.82
65378;SHT31;51982;51.042;13.806;2023-02-15T07:28:29;3.83;86.85
65378;SHT31;51982;51.042;13.806;2023-02-15T07:30:55;3.87;86.86
65378;SHT31;51982;51.042;13.806;2023-02-15T07:33:20;3.92;86.66
65378;SHT31;51982;51.042;13.806;2023-02-15T07:35:49;3.93;86.59
65378;SHT31;51982;51.042;13.806;2023-02-15T07:38:14;3.99;86.43
65378;SHT31;51982;51.042;13.806;2023-02-15T07:40:40;3.97;86.40
65378;SHT31;51982;51.042;13.806;2023-02-15T07:43:05;3.99;86.36
65378;SHT31;51982;51.042;13.806;2023-02-15T07:45:30;4.04;86.26
65378;SHT31;51982;51.042;13.806;2023-02-15T07:47:55;4.03;86.10
65378;SHT31;51982;51.042;13.806;2023-02-15T07:50:20;4.09;86.12
65378;SHT31;51982;51.042;13.806;2023-02-15T07:52:46;4.11;86.00
65378;SHT31;51982;51.042;13.806;2023-02-15T07:55:11;4.14;86.03
65378;SHT31;51982;51.042;13.806;2023-02-15T07:57:41;4.17;85.97
65378;SHT31;51982;51.042;13.806;2023-02-15T08:00:07;4.23;85.79
65378;SHT31;51982;51.042;13.806;2023-02-15T08:02:32;4.24;85.67
65378;SHT31;51982;51.042;13.806;2023-02-15T08:04:58;4.26;85.53
65378;SHT31;51982;51.042;13.806;2023-02-15T08:07:24;4.27;85.56
65378;SHT31;51982;51.042;13.806;2023-02-15T08:09:49;4.33;85.49
65378;SHT31;51982;51.042;13.806;2023-02-15T08:12:14;4.40;85.36
65378;SHT31;51982;51.042;13.806;2023-02-15T08:14:39;4.41;85.06
65378;SHT31;51982;51.042;13.806;2023-02-15T08:17:05;4.48;85.00
65378;SHT31;51982;51.042;13.806;2023-02-15T08:19:31;4.50;84.80
65378;SHT31;51982;51.042;13.806;2023-02-15T08:22:04;4.55;84.86
65378;SHT31;51982;51.042;13.806;2023-02-15T08:24:35;4.61;84.79
65378;SHT31;51982;51.042;13.806;2023-02-15T08:27:04;4.64;84.47
65378;SHT31;51982;51.042;13.806;2023-02-15T08:29:30;4.71;84.51
65378;SHT31;51982;51.042;13.806;2023-02-15T08:31:58;4.71;84.15
65378;SHT31;51982;51.042;13.806;2023-02-15T08:34:28;4.72;84.19
65378;SHT31;51982;51.042;13.806;2023-02-15T08:36:53;4.78;84.33
65378;SHT31;51982;51.042;13.806;2023-02-15T08:39:19;4.81;84.16
65378;SHT31;51982;51.042;13.806;2023-02-15T08:41:45;4.82;84.07
65378;SHT31;51982;51.042;13.806;2023-02-15T08:44:11;4.88;84.07
65378;SHT31;51982;51.042;13.806;2023-02-15T08:46:39;4.91;83.66
65378;SHT31;51982;51.042;13.806;2023-02-15T08:49:05;4.98;83.63
65378;SHT31;51982;51.042;13.806;2023-02-15T08:51:33;4.98;83.53
65378;SHT31;51982;51.042;13.806;2023-02-15T08:54:00;5.04;83.73
65378;SHT31;51982;51.042;13.806;2023-02-15T08:56:28;5.06;83.48
65378;SHT31;51982;51.042;13.806;2023-02-15T08:58:54;5.13;83.52
65378;SHT31;51982;51.042;13.806;2023-02-15T09:01:23;5.18;83.45
65378;SHT31;51982;51.042;13.806;2023-02-15T09:03:50;5.19;83.21
65378;SHT31;51982;51.042;13.806;2023-02-15T09:06:19;5.25;83.33
65378;SHT31;51982;51.042;13.806;2023-02-15T09:08:44;5.29;82.79
65378;SHT31;51982;51.042;13.806;2023-02-15T09:11:14;5.33;83.08
65378;SHT31;51982;51.042;13.806;2023-02-15T09:13:42;5.36;82.76
65378;SHT31;51982;51.042;13.806;2023-02-15T09:16:09;5.42;82.88
65378;SHT31;51982;51.042;13.806;2023-02-15T09:18:37;5.44;83.01
65378;SHT31;51982;51.042;13.806;2023-02-15T09:21:07;5.50;82.81
65378;SHT31;51982;51.042;13.806;2023-02-15T09:23:33;5.54;82.92
65378;SHT31;51982;51.042;13.806;2023-02-15T09:26:08;5.60;82.93
65378;SHT31;51982;51.042;13.806;2023-02-15T09:28:34;5.66;82.83
65378;SHT31;51982;51.042;13.806;2023-02-15T09:31:15;5.67;82.49
65378;SHT31;51982;51.042;13.806;2023-02-15T09:33:42;5.71;82.32
65378;SHT31;51982;51.042;13.806;2023-02-15T09:38:39;5.77;81.75
65378;SHT31;51982;51.042;13.806;2023-02-15T09:44:55;5.86;81.71
65378;SHT31;51982;51.042;13.806;2023-02-15T09:50:34;5.98;82.14
65378;SHT31;51982;51.042;13.806;2023-02-15T09:56:15;6.01;81.54
65378;SHT31;51982;51.042;13.806;2023-02-15T09:59:10;6.07;81.70
65378;SHT31;51982;51.042;13.806;2023-02-15T10:04:42;6.12;81.57
65378;SHT31;51982;51.042;13.806;2023-02-15T10:07:18;6.21;81.59
65378;SHT31;51982;51.042;13.806;2023-02-15T10:15:49;6.31;81.39
65378;SHT31;51982;51.042;13.806;2023-02-15T10:18:38;6.38;81.41
65378;SHT31;51982;51.042;13.806;2023-02-15T10:21:29;6.36;81.08
65378;SHT31;51982;51.042;13.806;2023-02-15T10:26:47;6.43;81.19
65378;SHT31;51982;51.042;13.806;2023-02-15T10:29:37;6.46;81.16
65378;SHT31;51982;51.042;13.806;2023-02-15T10:32:22;6.52;81.02
65378;SHT31;51982;51.042;13.806;2023-02-15T10:40:34;6.62;80.60
65378;SHT31;51982;51.042;13.806;2023-02-15T10:43:31;6.66;80.79
65378;SHT31;51982;51.042;13.806;2023-02-15T10:46:21;6.72;80.56
65378;SHT31;51982;51.042;13.806;2023-02-15T10:49:15;6.73;80.77
65378;SHT31;51982;51.042;13.806;2023-02-15T10:54:36;6.85;80.34
65378;SHT31;51982;51.042;13.806;2023-02-15T10:57:19;6.90;80.22
65378;SHT31;51982;51.042;13.806;2023-02-15T11:00:07;6.96;80.31
65378;SHT31;51982;51.042;13.806;2023-02-15T11:03:02;7.01;79.80
65378;SHT31;51982;51.042;13.806;2023-02-15T11:08:10;7.07;80.10
65378;SHT31;51982;51.042;13.806;2023-02-15T11:10:39;7.14;80.03
65378;SHT31;51982;51.042;13.806;2023-02-15T11:13:27;7.17;79.38
65378;SHT31;51982;51.042;13.806;2023-02-15T11:15:58;7.21;79.52
65378;SHT31;51982;51.042;13.806;2023-02-15T11:18:39;7.23;79.52
65378;SHT31;51982;51.042;13.806;2023-02-15T11:21:33;7.28;79.23
65378;SHT31;51982;51.042;13.806;2023-02-15T11:24:15;7.28;79.15
65378;SHT31;51982;51.042;13.806;2023-02-15T11:26:51;7.35;79.37
65378;SHT31;51982;51.042;13.806;2023-02-15T11:32:26;7.43;78.60
65378;SHT31;51982;51.042;13.806;2023-02-15T11:35:01;7.45;78.75
65378;SHT31;51982;51.042;13.806;2023-02-15T11:37:40;7.51;78.68
65378;SHT31;51982;51.042;13.806;2023-02-15T11:40:19;7.47;78.28
65378;SHT31;51982;51.042;13.806;2023-02-15T11:42:47;7.52;78.51
65378;SHT31;51982;51.042;13.806;2023-02-15T11:45:22;7.55;78.16
65378;SHT31;51982;51.042;13.806;2023-02-15T11:47:49;7.61;78.35
65378;SHT31;51982;51.042;13.806;2023-02-15T11:50:16;7.62;78.30
65378;SHT31;51982;51.042;13.806;2023-02-15T11:52:43;7.67;78.13
65378;SHT31;51982;51.042;13.806;2023-02-15T11:55:20;7.68;78.30
65378;SHT31;51982;51.042;13.806;2023-02-15T12:00:44;7.72;77.90
65378;SHT31;51982;51.042;13.806;2023-02-15T12:03:48;7.72;77.80
65378;SHT31;51982;51.042;13.806;2023-02-15T12:06:25;7.75;77.74
65378;SHT31;51982;51.042;13.806;2023-02-15T12:09:17;7.79;77.47
65378;SHT31;51982;51.042;13.806;2023-02-15T12:11:44;7.83;77.74
65378;SHT31;51982;51.042;13.806;2023-02-15T12:14:11;7.86;77.69
65378;SHT31;51982;51.042;13.806;2023-02-15T12:16:41;7.88;77.61
65378;SHT31;51982;51.042;13.806;2023-02-15T12:19:19;7.92;77.54
65378;SHT31;51982;51.042;13.806;2023-02-15T12:21:50;7.92;77.22
65378;SHT31;51982;51.042;13.806;2023-02-15T12:24:27;7.95;77.29
65378;SHT31;51982;51.042;13.806;2023-02-15T12:26:58;8.02;77.54
65378;SHT31;51982;51.042;13.806;2023-02-15T12:29:28;8.00;77.27
65378;SHT31;51982;51.042;13.806;2023-02-15T12:31:55;8.02;76.58
65378;SHT31;51982;51.042;13.806;2023-02-15T12:34:24;8.05;76.85
65378;SHT31;51982;51.042;13.806;2023-02-15T12:36:55;8.09;77.15
65378;SHT31;51982;51.042;13.806;2023-02-15T12:39:27;8.10;76.61
65378;SHT31;51982;51.042;13.806;2023-02-15T12:47:20;8.16;76.43
65378;SHT31;51982;51.042;13.806;2023-02-15T12:50:08;8.16;76.52
65378;SHT31;51982;51.042;13.806;2023-02-15T12:52:36;8.20;76.96
65378;SHT31;51982;51.042;13.806;2023-02-15T12:55:20;8.19;76.51
65378;SHT31;51982;51.042;13.806;2023-02-15T12:57:45;8.25;76.65
65378;SHT31;51982;51.042;13.806;2023-02-15T13:02:49;8.29;76.73
65378;SHT31;51982;51.042;13.806;2023-02-15T13:05:26;8.29;76.59
65378;SHT31;51982;51.042;13.806;2023-02-15T13:08:04;8.29;76.66
65378;SHT31;51982;51.042;13.806;2023-02-15T13:10:36;8.32;76.34
65378;SHT31;51982;51.042;13.806;2023-02-15T13:13:09;8.32;76.41
65378;SHT31;51982;51.042;13.806;2023-02-15T13:15:37;8.34;76.36
65378;SHT31;51982;51.042;13.806;2023-02-15T13:18:05;8.39;76.55
65378;SHT31;51982;51.042;13.806;2023-02-15T13:20:36;8.40;76.34
65378;SHT31;51982;51.042;13.806;2023-02-15T13:23:05;8.37;76.42
65378;SHT31;51982;51.042;13.806;2023-02-15T13:25:45;8.37;76.39
65378;SHT31;51982;51.042;13.806;2023-02-15T13:28:18;8.43;76.17
65378;SHT31;51982;51.042;13.806;2023-02-15T13:30:46;8.43;76.31
65378;SHT31;51982;51.042;13.806;2023-02-15T13:35:46;8.46;76.29
65378;SHT31;51982;51.042;13.806;2023-02-15T13:38:30;8.44;76.21
65378;SHT31;51982;51.042;13.806;2023-02-15T13:41:04;8.50;76.52
65378;SHT31;51982;51.042;13.806;2023-02-15T13:43:52;8.49;75.91
65378;SHT31;51982;51.042;13.806;2023-02-15T13:49:26;8.46;75.47
65378;SHT31;51982;51.042;13.806;2023-02-15T13:52:05;8.50;75.88
65378;SHT31;51982;51.042;13.806;2023-02-15T13:58:11;8.49;75.49
65378;SHT31;51982;51.042;13.806;2023-02-15T14:00:47;8.50;75.93
65378;SHT31;51982;51.042;13.806;2023-02-15T14:06:14;8.46;75.51
65378;SHT31;51982;51.042;13.806;2023-02-15T14:11:54;8.41;75.48
65378;SHT31;51982;51.042;13.806;2023-02-15T14:14:38;8.41;75.40
65378;SHT31;51982;51.042;13.806;2023-02-15T14:19:50;8.37;75.51
65378;SHT31;51982;51.042;13.806;2023-02-15T14:22:31;8.36;75.72
65378;SHT31;51982;51.042;13.806;2023-02-15T14:25:18;8.32;75.33
65378;SHT31;51982;51.042;13.806;2023-02-15T14:30:46;8.29;75.70
65378;SHT31;51982;51.042;13.806;2023-02-15T14:35:50;8.26;75.64
65378;SHT31;51982;51.042;13.806;2023-02-15T14:41:04;8.22;76.10
65378;SHT31;51982;51.042;13.806;2023-02-15T14:46:52;8.10;75.94
65378;SHT31;51982;51.042;13.806;2023-02-15T14:49:24;8.12;76.24
65378;SHT31;51982;51.042;13.806;2023-02-15T14:56:44;7.99;76.12
65378;SHT31;51982;51.042;13.806;2023-02-15T14:59:17;7.98;76.16
65378;SHT31;51982;51.042;13.806;2023-02-15T15:04:38;7.92;76.51
65378;SHT31;51982;51.042;13.806;2023-02-15T15:07:16;7.85;76.45
65378;SHT31;51982;51.042;13.806;2023-02-15T15:09:45;7.79;76.56
65378;SHT31;51982;51.042;13.806;2023-02-15T15:14:46;7.74;76.56
65378;SHT31;51982;51.042;13.806;2023-02-15T15:17:51;7.69;76.71
65378;SHT31;51982;51.042;13.806;2023-02-15T15:20:37;7.65;76.70
65378;SHT31;51982;51.042;13.806;2023-02-15T15:25:45;7.51;76.87
65378;SHT31;51982;51.042;13.806;2023-02-15T15:31:20;7.47;76.75
65378;SHT31;51982;51.042;13.806;2023-02-15T15:42:58;7.27;77.06
65378;SHT31;51982;51.042;13.806;2023-02-15T15:48:11;7.17;77.23
65378;SHT31;51982;51.042;13.806;2023-02-15T15:50:42;7.13;77.25
65378;SHT31;51982;51.042;13.806;2023-02-15T15:53:19;7.06;77.35
65378;SHT31;51982;51.042;13.806;2023-02-15T15:55:47;7.01;77.32
65378;SHT31;51982;51.042;13.806;2023-02-15T15:58:16;6.96;77.34
65378;SHT31;51982;51.042;13.806;2023-02-15T16:00:43;6.94;77.38
65378;SHT31;51982;51.042;13.806;2023-02-15T16:03:21;6.89;77.36
65378;SHT31;51982;51.042;13.806;2023-02-15T16:05:46;6.86;77.33
65378;SHT31;51982;51.042;13.806;2023-02-15T16:08:13;6.80;77.39
65378;SHT31;51982;51.042;13.806;2023-02-15T16:10:40;6.76;77.52
65378;SHT31;51982;51.042;13.806;2023-02-15T16:13:06;6.72;77.54
65378;SHT31;51982;51.042;13.806;2023-02-15T16:15:36;6.65;77.60
65378;SHT31;51982;51.042;13.806;2023-02-15T16:18:02;6.56;77.69
65378;SHT31;51982;51.042;13.806;2023-02-15T16:20:33;6.55;77.87
65378;SHT31;51982;51.042;13.806;2023-02-15T16:28:55;6.34;78.10
65378;SHT31;51982;51.042;13.806;2023-02-15T16:31:21;6.31;78.15
65378;SHT31;51982;51.042;13.806;2023-02-15T16:33:48;6.26;78.21
65378;SHT31;51982;51.042;13.806;2023-02-15T16:36:25;6.24;78.27
65378;SHT31;51982;51.042;13.806;2023-02-15T16:41:20;6.14;78.48
65378;SHT31;51982;51.042;13.806;2023-02-15T16:43:48;6.07;78.58
65378;SHT31;51982;51.042;13.806;2023-02-15T16:46:26;6.04;78.63
65378;SHT31;51982;51.042;13.806;2023-02-15T16:48:55;6.00;78.71
65378;SHT31;51982;51.042;13.806;2023-02-15T16:51:27;5.94;78.80
65378;SHT31;51982;51.042;13.806;2023-02-15T16:53:54;5.91;78.82
65378;SHT31;51982;51.042;13.806;2023-02-15T16:56:28;5.90;78.84
65378;SHT31;51982;51.042;13.806;2023-02-15T16:58:56;5.89;78.97
65378;SHT31;51982;51.042;13.806;2023-02-15T17:01:24;5.84;78.88
65378;SHT31;51982;51.042;13.806;2023-02-15T17:03:52;5.78;79.05
65378;SHT31;51982;51.042;13.806;2023-02-15T17:06:34;5.71;79.20
65378;SHT31;51982;51.042;13.806;2023-02-15T17:09:14;5.67;79.17
65378;SHT31;51982;51.042;13.806;2023-02-15T17:11:43;5.63;79.40
65378;SHT31;51982;51.042;13.806;2023-02-15T17:16:36;5.56;79.55
65378;SHT31;51982;51.042;13.806;2023-02-15T17:19:40;5.54;79.38
65378;SHT31;51982;51.042;13.806;2023-02-15T17:22:38;5.44;79.55
65378;SHT31;51982;51.042;13.806;2023-02-15T17:25:36;5.43;79.50
65378;SHT31;51982;51.042;13.806;2023-02-15T17:28:02;5.46;79.60
65378;SHT31;51982;51.042;13.806;2023-02-15T17:30:33;5.42;79.61
65378;SHT31;51982;51.042;13.806;2023-02-15T17:33:03;5.36;79.85
65378;SHT31;51982;51.042;13.806;2023-02-15T17:35:31;5.38;79.96
65378;SHT31;51982;51.042;13.806;2023-02-15T17:38:16;5.33;80.01
65378;SHT31;51982;51.042;13.806;2023-02-15T17:40:42;5.36;80.04
65378;SHT31;51982;51.042;13.806;2023-02-15T17:43:07;5.30;80.32
65378;SHT31;51982;51.042;13.806;2023-02-15T17:45:36;5.30;80.26
65378;SHT31;51982;51.042;13.806;2023-02-15T17:48:04;5.28;80.31
65378;SHT31;51982;51.042;13.806;2023-02-15T17:50:33;5.18;80.61
65378;SHT31;51982;51.042;13.806;2023-02-15T17:52:59;5.20;80.53
65378;SHT31;51982;51.042;13.806;2023-02-15T17:55:26;5.16;80.67
65378;SHT31;51982;51.042;13.806;2023-02-15T17:58:08;5.13;80.72
65378;SHT31;51982;51.042;13.806;2023-02-15T18:00:37;5.11;80.76
65378;SHT31;51982;51.042;13.806;2023-02-15T18:03:23;5.12;80.72
65378;SHT31;51982;51.042;13.806;2023-02-15T18:06:09;5.13;80.65
65378;SHT31;51982;51.042;13.806;2023-02-15T18:08:53;5.15;80.63